Stations météo

réclame
Mon MeteoGroup
Arties, Espagne (8107): Température de l'air & dewpoint: 12.02.2019 20:00:00 - 18.02.2019 20:00:00 (CET)Arties, Espagne (8107): Vitesse du vent & gusts: 12.02.2019 20:00:00 - 18.02.2019 20:00:00 (CET)Arties, Espagne (8107): Direction du vent: 12.02.2019 20:00:00 - 18.02.2019 20:00:00 (CET)Arties, Espagne (8107): Quantités de précipitations: 12.02.2019 20:00:00 - 18.02.2019 20:00:00 (CET)
Date & Time tt [°C] td [°C] ff [km/h] ff [knt] fx [km/h] fx [knt] dd rr [mm]
18.02.2019 20:00:00 - - - - - - - -
18.02.2019 19:00:00 3,1 -3,0 5 3 12 7 E -
18.02.2019 18:00:00 4,2 -2,5 3 1 7 4 ENE 0,0
18.02.2019 17:00:00 6,4 -3,0 0 0 7 4 NNE 0,0
18.02.2019 16:00:00 12,3 -4,5 3 2 11 6 SW 0,0
18.02.2019 15:00:00 15,0 -3,3 4 2 12 7 SW 0,0
18.02.2019 14:00:00 14,8 -3,0 5 3 12 6 SW 0,0
18.02.2019 13:00:00 14,1 0,0 3 2 9 5 WSW -
18.02.2019 12:00:00 9,6 -1,0 6 3 13 7 E 0,0
18.02.2019 11:00:00 8,6 -1,4 4 2 14 7 ENE 0,0
18.02.2019 10:00:00 6,0 -4,5 6 4 18 10 E 0,0
18.02.2019 09:00:00 4,3 -5,7 8 4 18 10 E 0,0
18.02.2019 08:00:00 3,1 -6,7 6 3 21 11 E 0,0
18.02.2019 07:00:00 2,7 -6,7 7 4 22 12 E -
18.02.2019 06:00:00 3,3 -6,4 9 5 22 12 ESE 0,0
18.02.2019 05:00:00 2,6 -6,4 8 5 23 12 E 0,0
18.02.2019 04:00:00 2,9 -6,4 6 3 20 11 E 0,0
18.02.2019 03:00:00 3,0 -6,0 8 4 18 10 ESE 0,0
18.02.2019 02:00:00 3,3 -6,0 8 4 19 10 E 0,0
18.02.2019 01:00:00 3,3 -5,7 5 3 24 13 E -
18.02.2019 00:00:00 4,2 -5,4 6 4 18 10 ESE 0,0
17.02.2019 23:00:00 4,5 -4,8 6 4 19 11 ESE 0,0
17.02.2019 22:00:00 4,9 -3,6 6 3 16 8 E 0,0
17.02.2019 21:00:00 2,7 -4,2 3 1 14 8 E 0,0
17.02.2019 20:00:00 4,1 -4,2 10 5 20 11 ENE 0,0
17.02.2019 19:00:00 4,6 -3,3 8 4 19 10 E -
17.02.2019 18:00:00 5,9 -2,0 5 3 16 8 ENE 0,0
17.02.2019 17:00:00 8,7 -3,3 2 1 14 8 ESE 0,0
17.02.2019 16:00:00 13,1 -4,2 3 2 14 7 WSW 0,0
17.02.2019 15:00:00 15,6 -2,0 3 2 15 8 WSW 0,0
17.02.2019 14:00:00 14,1 -0,7 6 3 16 9 NE 0,0
17.02.2019 13:00:00 13,1 -0,5 8 4 15 8 ENE -
17.02.2019 12:00:00 9,1 -0,7 5 3 13 7 E 0,0
17.02.2019 11:00:00 6,7 -3,3 5 3 14 7 E 0,0
17.02.2019 10:00:00 3,4 -6,0 5 3 19 11 ESE 0,0
17.02.2019 09:00:00 5,2 -6,7 12 6 26 14 ESE 0,0
17.02.2019 08:00:00 3,9 -7,1 9 5 21 11 ESE 0,0
17.02.2019 07:00:00 3,0 -7,1 7 4 17 9 E -
17.02.2019 06:00:00 3,8 -6,4 8 5 19 10 E 0,0
17.02.2019 05:00:00 2,6 -5,7 6 4 17 9 E 0,0
17.02.2019 04:00:00 3,9 -6,0 6 3 21 11 E 0,0
17.02.2019 03:00:00 4,7 -5,1 7 4 18 10 E 0,0
17.02.2019 02:00:00 3,4 -5,4 5 3 19 10 E 0,0
17.02.2019 01:00:00 2,1 -4,8 5 3 13 7 ENE -
17.02.2019 00:00:00 3,5 -4,8 6 3 17 9 E 0,0
16.02.2019 23:00:00 3,1 -3,9 5 3 15 8 E 0,0
16.02.2019 22:00:00 2,0 -4,2 5 3 12 6 E 0,0
16.02.2019 21:00:00 1,4 -3,6 1 1 10 6 E 0,0
16.02.2019 20:00:00 2,1 -3,3 4 2 11 6 NE 0,0
16.02.2019 19:00:00 2,5 -3,3 3 2 11 6 E -
16.02.2019 18:00:00 4,5 -2,5 2 1 8 4 E 0,0
16.02.2019 17:00:00 6,0 -3,6 3 2 10 5 NE 0,0
16.02.2019 16:00:00 12,4 -5,7 1 1 10 6 W 0,0
16.02.2019 15:00:00 16,2 -2,7 3 2 13 7 W 0,0
16.02.2019 14:00:00 12,8 1,7 1 0 6 3 S 0,0
16.02.2019 13:00:00 10,9 1,1 3 1 6 3 SE -
16.02.2019 12:00:00 7,7 0,2 1 0 4 2 E 0,0
16.02.2019 11:00:00 3,5 -2,0 1 0 5 3 E 0,0
16.02.2019 10:00:00 1,1 -3,3 1 1 10 5 NE 0,0
16.02.2019 09:00:00 1,0 -3,6 2 1 13 7 E 0,0
16.02.2019 08:00:00 1,2 -3,6 1 1 10 6 E 0,0
16.02.2019 07:00:00 0,8 -3,6 1 1 11 6 E -
16.02.2019 06:00:00 1,5 -3,9 2 1 16 9 E 0,0
16.02.2019 05:00:00 1,3 -3,3 3 2 13 7 ENE 0,0
16.02.2019 04:00:00 0,4 -4,2 1 1 11 6 ENE 0,0
16.02.2019 03:00:00 0,5 -4,2 1 1 10 6 NE 0,0
16.02.2019 02:00:00 1,3 -3,9 3 2 13 7 E 0,0
16.02.2019 01:00:00 1,5 -3,9 2 1 12 6 E -
16.02.2019 00:00:00 0,8 -3,6 1 1 12 6 E 0,0
15.02.2019 23:00:00 0,9 -3,3 1 0 7 4 NE 0,0
15.02.2019 22:00:00 1,3 -3,0 1 0 8 4 E 0,0
15.02.2019 21:00:00 1,3 -3,3 1 0 8 5 ENE 0,0
15.02.2019 20:00:00 2,0 -3,0 1 1 6 3 E 0,0
15.02.2019 19:00:00 3,0 -2,7 0 0 9 5 WNW -
15.02.2019 18:00:00 4,3 -2,2 2 1 6 3 NE 0,0
15.02.2019 17:00:00 6,1 -2,5 0 0 8 4 ENE 0,0
15.02.2019 16:00:00 11,5 -3,6 6 4 18 10 ENE 0,0
15.02.2019 15:00:00 15,6 -2,7 9 5 20 11 E 0,0
15.02.2019 14:00:00 14,0 -2,5 8 4 21 11 ENE 0,0
15.02.2019 13:00:00 14,0 -2,5 9 5 19 11 ENE -
15.02.2019 12:00:00 11,1 -1,0 5 3 16 8 E 0,0
15.02.2019 11:00:00 5,6 -4,2 4 2 16 9 E 0,0
15.02.2019 10:00:00 4,7 -6,4 3 2 22 12 E 0,0
15.02.2019 09:00:00 6,1 -6,4 10 5 23 13 ESE 0,0
15.02.2019 08:00:00 5,6 -7,1 9 5 28 15 E 0,0
15.02.2019 07:00:00 5,8 -6,7 9 5 26 14 ESE -
15.02.2019 06:00:00 5,6 -7,1 11 6 23 13 E 0,0
15.02.2019 05:00:00 5,4 -6,4 8 5 24 13 E 0,0
15.02.2019 04:00:00 5,3 -7,1 9 5 22 12 ESE 0,0
15.02.2019 03:00:00 5,3 -6,7 11 6 23 12 ESE 0,0
15.02.2019 02:00:00 5,9 -6,4 11 6 23 12 ESE 0,0
15.02.2019 01:00:00 5,9 -6,0 11 6 24 13 E -
15.02.2019 00:00:00 6,1 -5,7 10 5 24 13 ESE 0,0
14.02.2019 23:00:00 6,1 -5,7 10 5 24 13 ESE 0,0
14.02.2019 22:00:00 5,7 -5,4 8 4 19 10 E 0,0
14.02.2019 21:00:00 5,5 -4,8 6 3 18 10 E 0,0
14.02.2019 20:00:00 4,6 -3,9 5 3 13 7 E 0,0
14.02.2019 19:00:00 6,5 -2,0 3 1 16 9 ENE -
14.02.2019 18:00:00 5,6 -3,3 5 3 13 7 E 0,0
14.02.2019 17:00:00 8,0 -5,4 6 3 20 11 ENE 0,0
14.02.2019 16:00:00 12,6 -6,4 10 5 25 14 ENE 0,0
14.02.2019 15:00:00 13,6 -6,0 11 6 28 15 NE 0,0
14.02.2019 14:00:00 13,4 -6,4 15 8 29 16 ENE 0,0
14.02.2019 13:00:00 12,8 -6,4 13 7 30 16 ENE -
14.02.2019 12:00:00 11,8 -6,0 11 6 24 13 ENE 0,0
14.02.2019 11:00:00 7,2 -6,7 8 4 28 15 ENE 0,0
14.02.2019 10:00:00 5,5 -7,1 4 2 22 12 E 0,0
14.02.2019 09:00:00 4,4 -7,8 5 3 22 12 ESE 0,0
14.02.2019 08:00:00 3,8 -7,5 6 3 22 12 E 0,0
14.02.2019 07:00:00 3,9 -7,1 6 4 21 12 ESE -
14.02.2019 06:00:00 4,0 -7,1 9 5 21 11 ESE 0,0
14.02.2019 05:00:00 4,7 -6,4 8 4 21 11 ESE 0,0
14.02.2019 04:00:00 4,9 -6,0 9 5 23 12 ESE 0,0
14.02.2019 03:00:00 5,3 -5,7 10 5 22 12 ESE 0,0
14.02.2019 02:00:00 5,2 -5,7 9 5 21 12 ESE 0,0
14.02.2019 01:00:00 5,0 -5,7 7 4 22 12 ESE -
14.02.2019 00:00:00 5,4 -5,1 8 5 25 14 ESE 0,0
13.02.2019 23:00:00 5,5 -4,8 10 5 21 11 ESE 0,0
13.02.2019 22:00:00 6,0 -3,9 6 4 23 12 ESE 0,0
13.02.2019 21:00:00 1,4 -3,6 1 1 14 8 N 0,0
13.02.2019 20:00:00 1,4 -3,0 0 0 9 5 E 0,0
13.02.2019 19:00:00 2,1 -2,7 1 1 5 3 ENE -
13.02.2019 18:00:00 3,4 -2,2 2 1 6 3 ENE 0,0
13.02.2019 17:00:00 5,3 -3,3 0 0 9 5 ENE 0,0
13.02.2019 16:00:00 10,8 -5,4 8 4 16 9 ENE 0,0
13.02.2019 15:00:00 13,4 -4,8 6 3 21 11 ENE 0,0
13.02.2019 14:00:00 13,7 -3,0 8 4 19 10 ENE 0,0
13.02.2019 13:00:00 - - - - - - - -
13.02.2019 12:00:00 5,4 -3,3 5 3 6 4 ENE 0,0
13.02.2019 11:00:00 0,0 -6,0 0 0 4 2 E 0,0
13.02.2019 10:00:00 -2,2 -7,8 1 0 - - ENE -
13.02.2019 09:00:00 -2,4 -8,6 1 1 11 6 E 0,0
13.02.2019 08:00:00 -2,0 -8,6 5 3 13 7 E 0,0
13.02.2019 07:00:00 -2,8 -9,0 2 1 14 7 NE -
13.02.2019 06:00:00 -2,7 -9,0 3 2 16 8 ENE 0,0
13.02.2019 05:00:00 -1,6 -8,2 5 3 18 10 ENE 0,0
13.02.2019 04:00:00 -0,8 -7,8 7 4 16 8 E 0,0
13.02.2019 03:00:00 -2,7 -7,8 1 1 13 7 E 0,0
13.02.2019 02:00:00 -2,1 -7,5 4 2 11 6 ENE 0,0
13.02.2019 01:00:00 -2,2 -7,8 5 3 13 7 ENE -
13.02.2019 00:00:00 -1,7 -6,7 5 3 12 7 ENE 0,0
12.02.2019 23:00:00 -1,9 -6,7 5 3 10 5 ENE 0,0
12.02.2019 22:00:00 -2,4 -6,7 1 1 8 4 E 0,0
12.02.2019 21:00:00 -1,7 -6,0 1 0 8 4 E 0,0
12.02.2019 20:00:00 -0,8 -5,7 0 0 12 7 E 0,0

tt = Température de l'air
td = dewpoint
ff = Vitesse du vent
fx = gusts
dd = Direction du vent
rr = Quantités de précipitations

stations d'obs. à proximité